• Join FlightAware (Why Join?)
  • Login
  • US Flag 
10:27AM EDT


 

Airport Tracker/Info


-or-


 

Live Flight TrackerFlight Track Log ✈ AWE3794 ✈ 22-Apr-2013 ✈ KPHL - KCLE

Flight Track Log - Related Links

Times and Time Zones

All times are in EDT time to prevent confusion due to time zone crossing. See the AWE3794 flight status page for this flight to view local times or setup timezone preferences in your user account.

Time Position Orientation Groundspeed Altitude Reporting Facility
EDT Latitude Longitude Course Direction KTS MPH feet Rate Location/Type
07:49AM 39.8833 -75.2167 311° West 146 168 800  Level Philadelphia TRACON
07:50AM 39.8831 -75.1956 91° East 150 173 1,900 2,280 Climbing FAA TRACON SMA TRACON (SMA)
07:50AM 39.8892 -75.1742 70° East 181 208 2,800 3,120 Climbing FAA TRACON SMA TRACON (SMA)
07:50AM 39.8997 -75.1525 58° Northeast 198 228 4,000 3,000 Climbing FAA TRACON SMA TRACON (SMA)
07:51AM 39.9169 -75.1472 13° North 228 262 4,800 2,220 Climbing FAA TRACON SMA TRACON (SMA)
07:51AM 39.9361 -75.1550 343° North 219 252 5,500 1,620 Climbing FAA TRACON SMA TRACON (SMA)
07:51AM 39.9597 -75.1678 337° Northwest 260 299 5,900 1,680 Climbing FAA TRACON SMA TRACON (SMA)
07:52AM 40.0948 -75.4448 323° Northwest  Level FlightAware Approximate
07:52AM 39.9744 -75.1897 311° West 273 314 6,600  Level FAA TRACON SMA TRACON (SMA)
07:52AM 39.9897 -75.2133 310° West 275 316 7,200 1,920 Climbing FAA TRACON SMA TRACON (SMA)
07:52AM 40.0050 -75.2367 311° West 280 322 7,900 3,000 Climbing FAA TRACON SMA TRACON (SMA)
07:53AM 40.1724 -75.5223 323° Northwest  Level FlightAware Approximate
07:53AM 40.0247 -75.2667 311° West 282 325 9,200  Level FAA TRACON SMA TRACON (SMA)
07:53AM 40.0408 -75.2903 312° West 284 327 9,800 1,320 Climbing FAA TRACON SMA TRACON (SMA)
07:53AM 40.0631 -75.3233 311° West 326 375 10,100 300 Climbing FAA TRACON SMA TRACON (SMA)
07:54AM 40.2470 -75.5955 311° West  Level FlightAware Approximate
07:54AM 40.0817 -75.3511 311° West 342 394 10,000  Level FAA TRACON SMA TRACON (SMA)
07:54AM 40.1003 -75.3794 311° West 336 387 10,200 1,200 Climbing FAA TRACON SMA TRACON (SMA)
07:54AM 40.1228 -75.4122 312° West 342 394 10,800 1,920 Climbing FAA TRACON SMA TRACON (SMA)
07:55AM 40.1442 -75.4442 311° West 343 395 11,500 1,920 Climbing FAA TRACON SMA TRACON (SMA)
07:55AM 40.1636 -75.4731 311° West 343 395 12,100 1,920 Climbing FAA TRACON SMA TRACON (SMA)
07:55AM 40.1875 -75.5092 311° West 343 395 12,800 1,800 Climbing FAA TRACON SMA TRACON (SMA)
07:56AM 40.2069 -75.5378 312° West 342 394 13,300 1,500 Climbing FAA TRACON SMA TRACON (SMA)
07:56AM 40.2264 -75.5672 311° West 346 398 13,800 1,800 Climbing FAA TRACON SMA TRACON (SMA)
07:56AM 40.2492 -75.6003 312° West 353 406 14,500 2,220 Climbing FAA TRACON SMA TRACON (SMA)
07:57AM 40.2717 -75.6347 311° West 359 413 15,300 2,220 Climbing FAA TRACON SMA TRACON (SMA)
07:57AM 40.2922 -75.6661 311° West 360 414 16,000 1,920 Climbing FAA TRACON SMA TRACON (SMA)
07:57AM 40.3169 -75.7031 311° West 359 413 16,600 1,800 Climbing FAA TRACON SMA TRACON (SMA)
07:58AM 40.3386 -75.7336 313° West 362 417 17,200 1,620 Climbing FAA TRACON SMA TRACON (SMA)
07:58AM 40.3583 -75.7661 309° West 365 420 17,700 1,200 Climbing FAA TRACON SMA TRACON (SMA)
07:58AM 40.3689 -75.7817 312° West 366 421 18,000 420 Climbing FAA TRACON SMA TRACON (SMA)
07:59AM 40.3689 -75.7817 114° Southeast 366 421 18,000 960 Level FAA TRACON SMA TRACON (SMA)
07:59AM 40.4375 -75.9003 307° West 369 425 19,000 1,500 Climbing New York Center
08:00AM 40.4625 -76.0439 283° West 358 412 20,600 1,380 Climbing New York Center
08:01AM 40.4858 -76.1767 283° West 370 426 21,800 1,140 Climbing New York Center
08:02AM 40.5064 -76.3150 281° West 376 433 22,900 1,020 Climbing New York Center
08:03AM 40.5269 -76.4558 281° West 387 445 23,900 900 Climbing New York Center
08:04AM 40.5514 -76.5917 283° West 392 451 24,800 780 Climbing New York Center
08:05AM 40.5861 -76.7342 288° West 401 461 25,500 660 Climbing New York Center
08:06AM 40.6228 -76.8739 289° West 406 467 26,200 720 Climbing New York Center
08:07AM 40.6631 -77.0172 290° West 412 474 27,000 660 Climbing New York Center
08:08AM 40.6992 -77.1600 288° West 412 474 27,600 480 Climbing New York Center
08:09AM 40.7375 -77.3008 290° West 412 474 28,000 180 Climbing New York Center
08:10AM 40.7700 -77.4272 289° West 412 474 28,000  Level New York Center
08:12AM 40.8303 -77.6578 289° West 419 482 28,000  Level Cleveland Center
08:13AM 40.8628 -77.7881 288° West 407 468 28,000  Level Cleveland Center
08:14AM 40.8969 -77.9186 289° West 386 444 28,000  Level Cleveland Center
08:15AM 40.9228 -78.0439 285° West 375 432 28,000  Level Cleveland Center
08:16AM 40.9444 -78.1778 282° West 375 432 28,000  Level Cleveland Center
08:17AM 40.9700 -78.3061 285° West 369 425 28,000  Level Cleveland Center
08:18AM 40.9914 -78.4375 282° West 369 425 28,000  Level Cleveland Center
08:19AM 41.0125 -78.5661 282° West 369 425 28,000  Level Cleveland Center
08:20AM 41.0333 -78.6947 282° West 369 425 28,000  Level Cleveland Center
08:21AM 41.0544 -78.8264 282° West 369 425 28,000  Level Cleveland Center
08:22AM 41.0750 -78.9636 281° West 374 430 28,000  Level Cleveland Center
08:23AM 41.0956 -79.0953 282° West 374 430 28,000  Level Cleveland Center
08:24AM 41.1161 -79.2244 282° West 379 436 28,000  Level Cleveland Center
08:25AM 41.1383 -79.3617 282° West 379 436 28,000  Level Cleveland Center
08:26AM 41.1586 -79.4992 281° West 384 442 28,000  Level Cleveland Center
08:27AM 41.1808 -79.6561 281° West 395 455 28,000  Level Cleveland Center
08:28AM 41.2006 -79.7967 281° West 395 455 28,000  Level Cleveland Center
08:29AM 41.2222 -79.9344 282° West 389 448 28,000  Level Cleveland Center
08:30AM 41.2439 -80.0583 283° West 389 448 28,000 -1,140 Level Cleveland Center
08:31AM 41.2631 -80.2047 280° West 394 453 25,800 -2,280 Descending Cleveland Center
08:32AM 41.2844 -80.3539 281° West 399 459 23,500 -2,400 Descending Cleveland Center
08:33AM 41.3053 -80.5003 281° West 410 472 21,000 -2,460 Descending Cleveland Center
08:34AM 41.3242 -80.6383 280° West 398 458 18,600 -2,220 Descending Cleveland Center
08:35AM 41.3658 -80.7686 293° West 380 437 16,600 -2,160 Descending Cleveland Center
08:36AM 41.4133 -80.8906 297° West 374 430 14,300 -2,520 Descending Cleveland Center
08:37AM 41.4486 -80.9875 296° West 378 435 12,400 -2,520 Descending Cleveland Center
08:37AM 41.4589 -81.0181 294° West 380 437 11,800 -2,100 Descending Cleveland Center
08:38AM 41.5022 -81.1267 298° West 366 421 10,100 -900 Descending Cleveland Center
08:39AM 41.5014 -81.2653 270° West 340 391 10,100  Level Cleveland Center
08:40AM 41.4839 -81.3897 259° West 342 394 10,100  Level Cleveland Center
08:41AM 41.4683 -81.5225 261° West 344 396 10,100 -180 Level Cleveland Center
08:42AM 41.4425 -81.6081 248° West 288 331 9,800 -1,200 Descending Cleveland Center
08:43AM 41.4061 -81.7181 246° West 291 335 7,800 -1,380 Descending Cleveland Center
08:44AM 41.3636 -81.7975 235° Southwest 274 315 6,900 -1,440 Descending Cleveland Center
08:45AM 41.3189 -81.8797 234° Southwest 263 303 5,000 -1,980 Descending Cleveland Center